sensor_id;sensor_type;location;lat;lon;timestamp;temperature;humidity
61201;DHT22;47065;52.898;6.992;2022-09-13T00:00:38;17.30;99.90
61201;DHT22;47065;52.898;6.992;2022-09-13T00:03:05;17.20;99.90
61201;DHT22;47065;52.898;6.992;2022-09-13T00:05:31;17.10;99.90
61201;DHT22;47065;52.898;6.992;2022-09-13T00:07:57;17.10;99.90
61201;DHT22;47065;52.898;6.992;2022-09-13T00:10:24;17.00;99.90
61201;DHT22;47065;52.898;6.992;2022-09-13T00:12:50;17.00;99.90
61201;DHT22;47065;52.898;6.992;2022-09-13T00:15:16;17.00;99.90
61201;DHT22;47065;52.898;6.992;2022-09-13T00:17:42;17.00;99.90
61201;DHT22;47065;52.898;6.992;2022-09-13T00:20:08;17.00;99.90
61201;DHT22;47065;52.898;6.992;2022-09-13T00:22:34;17.00;99.90
61201;DHT22;47065;52.898;6.992;2022-09-13T00:25:02;16.90;99.90
61201;DHT22;47065;52.898;6.992;2022-09-13T00:27:28;16.90;99.90
61201;DHT22;47065;52.898;6.992;2022-09-13T00:29:53;16.90;99.90
61201;DHT22;47065;52.898;6.992;2022-09-13T00:32:19;16.90;99.90
61201;DHT22;47065;52.898;6.992;2022-09-13T00:34:44;16.90;99.90
61201;DHT22;47065;52.898;6.992;2022-09-13T00:37:10;16.90;99.90
61201;DHT22;47065;52.898;6.992;2022-09-13T00:39:36;16.90;99.90
61201;DHT22;47065;52.898;6.992;2022-09-13T00:42:01;16.90;99.90
61201;DHT22;47065;52.898;6.992;2022-09-13T00:52:38;16.90;99.90
61201;DHT22;47065;52.898;6.992;2022-09-13T00:55:12;16.90;99.90
61201;DHT22;47065;52.898;6.992;2022-09-13T00:57:40;16.90;99.90
61201;DHT22;47065;52.898;6.992;2022-09-13T01:00:12;16.90;99.90
61201;DHT22;47065;52.898;6.992;2022-09-13T01:02:45;16.90;99.90
61201;DHT22;47065;52.898;6.992;2022-09-13T01:05:13;16.90;99.90
61201;DHT22;47065;52.898;6.992;2022-09-13T01:07:41;17.00;99.90
61201;DHT22;47065;52.898;6.992;2022-09-13T01:10:07;17.00;99.90
61201;DHT22;47065;52.898;6.992;2022-09-13T01:12:56;17.00;99.90
61201;DHT22;47065;52.898;6.992;2022-09-13T01:15:23;17.00;99.90
61201;DHT22;47065;52.898;6.992;2022-09-13T01:17:51;17.00;99.90
61201;DHT22;47065;52.898;6.992;2022-09-13T01:20:17;17.00;99.90
61201;DHT22;47065;52.898;6.992;2022-09-13T01:31:01;17.10;99.90
61201;DHT22;47065;52.898;6.992;2022-09-13T01:34:15;17.10;99.90
61201;DHT22;47065;52.898;6.992;2022-09-13T01:37:21;17.10;99.90
61201;DHT22;47065;52.898;6.992;2022-09-13T01:40:16;17.10;99.90
61201;DHT22;47065;52.898;6.992;2022-09-13T01:43:22;17.10;99.90
61201;DHT22;47065;52.898;6.992;2022-09-13T01:45:55;17.10;99.90
61201;DHT22;47065;52.898;6.992;2022-09-13T01:51:19;17.10;99.90
61201;DHT22;47065;52.898;6.992;2022-09-13T02:00:24;17.00;99.90
61201;DHT22;47065;52.898;6.992;2022-09-13T02:02:48;17.00;99.90
61201;DHT22;47065;52.898;6.992;2022-09-13T02:05:52;17.00;99.90
61201;DHT22;47065;52.898;6.992;2022-09-13T02:11:07;17.00;99.90
61201;DHT22;47065;52.898;6.992;2022-09-13T02:13:40;16.90;99.90
61201;DHT22;47065;52.898;6.992;2022-09-13T02:16:33;16.90;99.90
61201;DHT22;47065;52.898;6.992;2022-09-13T02:20:11;16.90;99.90
61201;DHT22;47065;52.898;6.992;2022-09-13T02:22:05;16.80;99.90
61201;DHT22;47065;52.898;6.992;2022-09-13T02:24:38;16.80;99.90
61201;DHT22;47065;52.898;6.992;2022-09-13T02:27:23;16.90;99.90
61201;DHT22;47065;52.898;6.992;2022-09-13T02:29:54;16.80;99.90
61201;DHT22;47065;52.898;6.992;2022-09-13T02:32:32;16.80;99.90
61201;DHT22;47065;52.898;6.992;2022-09-13T02:35:10;16.80;99.90
61201;DHT22;47065;52.898;6.992;2022-09-13T02:37:39;16.80;99.90
61201;DHT22;47065;52.898;6.992;2022-09-13T02:40:09;16.70;99.90
61201;DHT22;47065;52.898;6.992;2022-09-13T02:42:42;16.70;99.90
61201;DHT22;47065;52.898;6.992;2022-09-13T02:45:09;16.70;99.90
61201;DHT22;47065;52.898;6.992;2022-09-13T02:47:58;16.70;99.90
61201;DHT22;47065;52.898;6.992;2022-09-13T02:50:53;16.70;99.90
61201;DHT22;47065;52.898;6.992;2022-09-13T02:58:38;16.70;99.90
61201;DHT22;47065;52.898;6.992;2022-09-13T03:01:09;16.70;99.90
61201;DHT22;47065;52.898;6.992;2022-09-13T03:03:35;16.70;99.90
61201;DHT22;47065;52.898;6.992;2022-09-13T03:06:01;16.60;99.90
61201;DHT22;47065;52.898;6.992;2022-09-13T03:08:28;16.70;99.90
61201;DHT22;47065;52.898;6.992;2022-09-13T03:27:21;16.70;99.90
61201;DHT22;47065;52.898;6.992;2022-09-13T03:30:04;16.80;99.90
61201;DHT22;47065;52.898;6.992;2022-09-13T03:35:58;16.80;99.90
61201;DHT22;47065;52.898;6.992;2022-09-13T03:38:36;16.80;99.90
61201;DHT22;47065;52.898;6.992;2022-09-13T03:41:12;16.90;99.90
61201;DHT22;47065;52.898;6.992;2022-09-13T03:43:54;16.90;99.90
61201;DHT22;47065;52.898;6.992;2022-09-13T03:46:40;17.00;99.90
61201;DHT22;47065;52.898;6.992;2022-09-13T03:49:09;16.90;99.90
61201;DHT22;47065;52.898;6.992;2022-09-13T03:51:36;17.00;99.90
61201;DHT22;47065;52.898;6.992;2022-09-13T03:54:05;17.00;99.90
61201;DHT22;47065;52.898;6.992;2022-09-13T03:56:33;17.00;99.90
61201;DHT22;47065;52.898;6.992;2022-09-13T03:58:58;17.00;99.90
61201;DHT22;47065;52.898;6.992;2022-09-13T04:01:24;17.10;99.90
61201;DHT22;47065;52.898;6.992;2022-09-13T04:03:51;17.00;99.90
61201;DHT22;47065;52.898;6.992;2022-09-13T04:06:16;17.00;99.90
61201;DHT22;47065;52.898;6.992;2022-09-13T04:08:42;17.10;99.90
61201;DHT22;47065;52.898;6.992;2022-09-13T04:11:09;17.10;99.90
61201;DHT22;47065;52.898;6.992;2022-09-13T04:13:38;17.10;99.90
61201;DHT22;47065;52.898;6.992;2022-09-13T04:16:05;17.10;99.90
61201;DHT22;47065;52.898;6.992;2022-09-13T04:18:31;17.10;99.90
61201;DHT22;47065;52.898;6.992;2022-09-13T04:20:59;17.10;99.90
61201;DHT22;47065;52.898;6.992;2022-09-13T04:23:26;17.10;99.90
61201;DHT22;47065;52.898;6.992;2022-09-13T04:25:52;17.10;99.90
61201;DHT22;47065;52.898;6.992;2022-09-13T04:28:18;17.10;99.90
61201;DHT22;47065;52.898;6.992;2022-09-13T04:30:45;17.10;99.90
61201;DHT22;47065;52.898;6.992;2022-09-13T04:33:11;17.20;99.90
61201;DHT22;47065;52.898;6.992;2022-09-13T04:35:38;17.10;99.90
61201;DHT22;47065;52.898;6.992;2022-09-13T04:38:04;17.20;99.90
61201;DHT22;47065;52.898;6.992;2022-09-13T04:40:30;17.20;99.90
61201;DHT22;47065;52.898;6.992;2022-09-13T04:42:56;17.20;99.90
61201;DHT22;47065;52.898;6.992;2022-09-13T04:45:22;17.10;99.90
61201;DHT22;47065;52.898;6.992;2022-09-13T04:47:51;17.10;99.90
61201;DHT22;47065;52.898;6.992;2022-09-13T04:50:19;17.10;99.90
61201;DHT22;47065;52.898;6.992;2022-09-13T04:52:45;17.10;99.90
61201;DHT22;47065;52.898;6.992;2022-09-13T04:55:11;17.10;99.90
61201;DHT22;47065;52.898;6.992;2022-09-13T04:57:37;17.10;99.90
61201;DHT22;47065;52.898;6.992;2022-09-13T05:00:03;17.20;99.90
61201;DHT22;47065;52.898;6.992;2022-09-13T05:02:29;17.20;99.90
61201;DHT22;47065;52.898;6.992;2022-09-13T05:04:54;17.20;99.90
61201;DHT22;47065;52.898;6.992;2022-09-13T05:07:20;17.20;99.90
61201;DHT22;47065;52.898;6.992;2022-09-13T05:09:46;17.20;99.90
61201;DHT22;47065;52.898;6.992;2022-09-13T05:12:12;17.20;99.90
61201;DHT22;47065;52.898;6.992;2022-09-13T05:14:37;17.20;99.90
61201;DHT22;47065;52.898;6.992;2022-09-13T05:17:03;17.20;99.90
61201;DHT22;47065;52.898;6.992;2022-09-13T05:19:29;17.30;99.90
61201;DHT22;47065;52.898;6.992;2022-09-13T05:21:55;17.30;99.90
61201;DHT22;47065;52.898;6.992;2022-09-13T05:24:20;17.30;99.90
61201;DHT22;47065;52.898;6.992;2022-09-13T05:26:46;17.20;99.90
61201;DHT22;47065;52.898;6.992;2022-09-13T05:29:12;17.30;99.90
61201;DHT22;47065;52.898;6.992;2022-09-13T05:31:40;17.30;99.90
61201;DHT22;47065;52.898;6.992;2022-09-13T05:34:08;17.30;99.90
61201;DHT22;47065;52.898;6.992;2022-09-13T05:36:37;17.30;99.90
61201;DHT22;47065;52.898;6.992;2022-09-13T05:39:03;17.30;99.90
61201;DHT22;47065;52.898;6.992;2022-09-13T05:41:29;17.30;99.90
61201;DHT22;47065;52.898;6.992;2022-09-13T05:43:55;17.30;99.90
61201;DHT22;47065;52.898;6.992;2022-09-13T05:46:21;17.30;99.90
61201;DHT22;47065;52.898;6.992;2022-09-13T05:48:47;17.40;99.90
61201;DHT22;47065;52.898;6.992;2022-09-13T05:51:15;17.30;99.90
61201;DHT22;47065;52.898;6.992;2022-09-13T05:53:44;17.40;99.90
61201;DHT22;47065;52.898;6.992;2022-09-13T05:56:17;17.30;99.90
61201;DHT22;47065;52.898;6.992;2022-09-13T05:58:47;17.40;99.90
61201;DHT22;47065;52.898;6.992;2022-09-13T06:01:17;17.40;99.90
61201;DHT22;47065;52.898;6.992;2022-09-13T06:03:47;17.40;99.90
61201;DHT22;47065;52.898;6.992;2022-09-13T06:06:14;17.40;99.90
61201;DHT22;47065;52.898;6.992;2022-09-13T06:08:40;17.50;99.90
61201;DHT22;47065;52.898;6.992;2022-09-13T06:11:08;17.50;99.90
61201;DHT22;47065;52.898;6.992;2022-09-13T06:13:35;17.50;99.90
61201;DHT22;47065;52.898;6.992;2022-09-13T06:16:03;17.50;99.90
61201;DHT22;47065;52.898;6.992;2022-09-13T06:18:30;17.50;99.90
61201;DHT22;47065;52.898;6.992;2022-09-13T06:21:00;17.50;99.90
61201;DHT22;47065;52.898;6.992;2022-09-13T06:23:27;17.50;99.90
61201;DHT22;47065;52.898;6.992;2022-09-13T06:26:07;17.50;99.90
61201;DHT22;47065;52.898;6.992;2022-09-13T06:28:33;17.50;99.90
61201;DHT22;47065;52.898;6.992;2022-09-13T06:31:10;17.50;99.90
61201;DHT22;47065;52.898;6.992;2022-09-13T06:33:39;17.50;99.90
61201;DHT22;47065;52.898;6.992;2022-09-13T06:36:15;17.60;99.90
61201;DHT22;47065;52.898;6.992;2022-09-13T06:38:46;17.50;99.90
61201;DHT22;47065;52.898;6.992;2022-09-13T06:41:15;17.60;99.90
61201;DHT22;47065;52.898;6.992;2022-09-13T06:43:43;17.60;99.90
61201;DHT22;47065;52.898;6.992;2022-09-13T06:46:11;17.60;99.90
61201;DHT22;47065;52.898;6.992;2022-09-13T06:48:40;17.60;99.90
61201;DHT22;47065;52.898;6.992;2022-09-13T06:51:08;17.50;99.90
61201;DHT22;47065;52.898;6.992;2022-09-13T06:53:36;17.50;99.90
61201;DHT22;47065;52.898;6.992;2022-09-13T06:56:17;17.60;99.90
61201;DHT22;47065;52.898;6.992;2022-09-13T06:58:44;17.50;99.90
61201;DHT22;47065;52.898;6.992;2022-09-13T07:01:15;17.40;99.90
61201;DHT22;47065;52.898;6.992;2022-09-13T07:03:43;17.40;99.90
61201;DHT22;47065;52.898;6.992;2022-09-13T07:06:17;17.40;99.90
61201;DHT22;47065;52.898;6.992;2022-09-13T07:08:44;17.40;99.90
61201;DHT22;47065;52.898;6.992;2022-09-13T07:11:12;17.40;99.90
61201;DHT22;47065;52.898;6.992;2022-09-13T07:13:38;17.40;99.90
61201;DHT22;47065;52.898;6.992;2022-09-13T07:16:10;17.30;99.90
61201;DHT22;47065;52.898;6.992;2022-09-13T07:18:36;17.40;99.90
61201;DHT22;47065;52.898;6.992;2022-09-13T07:21:04;17.30;99.90
61201;DHT22;47065;52.898;6.992;2022-09-13T07:23:34;17.30;99.90
61201;DHT22;47065;52.898;6.992;2022-09-13T07:26:01;17.30;99.90
61201;DHT22;47065;52.898;6.992;2022-09-13T07:28:30;17.30;99.90
61201;DHT22;47065;52.898;6.992;2022-09-13T07:31:02;17.30;99.90
61201;DHT22;47065;52.898;6.992;2022-09-13T07:33:28;17.30;99.90
61201;DHT22;47065;52.898;6.992;2022-09-13T07:35:55;17.30;99.90
61201;DHT22;47065;52.898;6.992;2022-09-13T07:38:21;17.40;99.90
61201;DHT22;47065;52.898;6.992;2022-09-13T07:40:57;17.40;99.90
61201;DHT22;47065;52.898;6.992;2022-09-13T07:43:26;17.50;99.90
61201;DHT22;47065;52.898;6.992;2022-09-13T07:45:58;17.50;99.90
61201;DHT22;47065;52.898;6.992;2022-09-13T07:48:26;17.70;99.90
61201;DHT22;47065;52.898;6.992;2022-09-13T07:53:30;17.80;99.90
61201;DHT22;47065;52.898;6.992;2022-09-13T07:56:08;17.90;99.90
61201;DHT22;47065;52.898;6.992;2022-09-13T07:58:35;18.00;99.90
61201;DHT22;47065;52.898;6.992;2022-09-13T08:01:10;18.00;99.90
61201;DHT22;47065;52.898;6.992;2022-09-13T08:03:37;18.10;99.90
61201;DHT22;47065;52.898;6.992;2022-09-13T08:06:03;18.20;99.90
61201;DHT22;47065;52.898;6.992;2022-09-13T08:08:30;18.20;99.90
61201;DHT22;47065;52.898;6.992;2022-09-13T08:10:58;18.30;99.90
61201;DHT22;47065;52.898;6.992;2022-09-13T08:13:24;18.40;99.90
61201;DHT22;47065;52.898;6.992;2022-09-13T08:15:50;18.60;99.90
61201;DHT22;47065;52.898;6.992;2022-09-13T08:18:17;18.70;99.90
61201;DHT22;47065;52.898;6.992;2022-09-13T08:20:43;18.80;99.90
61201;DHT22;47065;52.898;6.992;2022-09-13T08:23:10;18.90;99.90
61201;DHT22;47065;52.898;6.992;2022-09-13T08:25:36;19.00;99.90
61201;DHT22;47065;52.898;6.992;2022-09-13T08:28:07;19.20;99.90
61201;DHT22;47065;52.898;6.992;2022-09-13T08:30:34;19.30;99.90
61201;DHT22;47065;52.898;6.992;2022-09-13T08:33:04;19.40;99.90
61201;DHT22;47065;52.898;6.992;2022-09-13T08:35:31;19.50;99.90
61201;DHT22;47065;52.898;6.992;2022-09-13T08:37:58;19.50;99.90
61201;DHT22;47065;52.898;6.992;2022-09-13T08:40:29;19.70;99.90
61201;DHT22;47065;52.898;6.992;2022-09-13T08:48:40;19.90;99.90
61201;DHT22;47065;52.898;6.992;2022-09-13T08:51:19;20.90;99.90
61201;DHT22;47065;52.898;6.992;2022-09-13T08:53:48;21.80;99.90
61201;DHT22;47065;52.898;6.992;2022-09-13T08:56:26;22.80;99.90
61201;DHT22;47065;52.898;6.992;2022-09-13T08:59:14;23.50;99.90
61201;DHT22;47065;52.898;6.992;2022-09-13T09:04:29;24.20;99.90
61201;DHT22;47065;52.898;6.992;2022-09-13T09:07:50;23.90;99.90
61201;DHT22;47065;52.898;6.992;2022-09-13T09:10:00;23.40;99.90
61201;DHT22;47065;52.898;6.992;2022-09-13T09:12:29;22.80;99.90
61201;DHT22;47065;52.898;6.992;2022-09-13T09:15:02;22.80;99.90
61201;DHT22;47065;52.898;6.992;2022-09-13T09:17:40;23.70;99.90
61201;DHT22;47065;52.898;6.992;2022-09-13T09:20:25;24.80;99.90
61201;DHT22;47065;52.898;6.992;2022-09-13T09:22:52;25.90;99.90
61201;DHT22;47065;52.898;6.992;2022-09-13T09:25:22;26.20;99.90
61201;DHT22;47065;52.898;6.992;2022-09-13T09:27:48;26.00;99.90
61201;DHT22;47065;52.898;6.992;2022-09-13T09:30:14;26.10;99.60
61201;DHT22;47065;52.898;6.992;2022-09-13T09:32:48;26.20;95.90
61201;DHT22;47065;52.898;6.992;2022-09-13T09:36:00;26.40;92.80
61201;DHT22;47065;52.898;6.992;2022-09-13T09:38:40;26.70;91.40
61201;DHT22;47065;52.898;6.992;2022-09-13T09:41:22;26.70;95.80
61201;DHT22;47065;52.898;6.992;2022-09-13T09:44:00;26.80;92.00
61201;DHT22;47065;52.898;6.992;2022-09-13T09:46:34;26.40;95.50
61201;DHT22;47065;52.898;6.992;2022-09-13T09:49:11;25.80;94.60
61201;DHT22;47065;52.898;6.992;2022-09-13T09:51:59;25.30;95.60
61201;DHT22;47065;52.898;6.992;2022-09-13T09:54:26;24.50;96.40
61201;DHT22;47065;52.898;6.992;2022-09-13T09:56:55;24.00;97.60
61201;DHT22;47065;52.898;6.992;2022-09-13T09:59:27;23.50;98.30
61201;DHT22;47065;52.898;6.992;2022-09-13T10:01:54;23.20;98.60
61201;DHT22;47065;52.898;6.992;2022-09-13T10:04:23;23.00;98.80
61201;DHT22;47065;52.898;6.992;2022-09-13T10:06:50;22.80;99.50
61201;DHT22;47065;52.898;6.992;2022-09-13T10:09:31;22.70;99.60
61201;DHT22;47065;52.898;6.992;2022-09-13T10:11:58;22.70;99.90
61201;DHT22;47065;52.898;6.992;2022-09-13T10:17:24;22.80;99.80
61201;DHT22;47065;52.898;6.992;2022-09-13T10:20:01;22.80;99.50
61201;DHT22;47065;52.898;6.992;2022-09-13T10:22:30;22.80;98.20
61201;DHT22;47065;52.898;6.992;2022-09-13T10:25:24;22.80;97.90
61201;DHT22;47065;52.898;6.992;2022-09-13T10:27:53;22.80;97.50
61201;DHT22;47065;52.898;6.992;2022-09-13T10:30:32;22.80;97.80
61201;DHT22;47065;52.898;6.992;2022-09-13T10:32:59;22.80;97.00
61201;DHT22;47065;52.898;6.992;2022-09-13T10:35:26;22.90;97.20
61201;DHT22;47065;52.898;6.992;2022-09-13T10:37:52;23.00;97.50
61201;DHT22;47065;52.898;6.992;2022-09-13T10:40:29;23.10;95.80
61201;DHT22;47065;52.898;6.992;2022-09-13T10:42:57;23.00;94.80
61201;DHT22;47065;52.898;6.992;2022-09-13T10:45:25;22.80;95.80
61201;DHT22;47065;52.898;6.992;2022-09-13T10:47:56;22.60;96.40
61201;DHT22;47065;52.898;6.992;2022-09-13T10:50:25;22.50;95.80
61201;DHT22;47065;52.898;6.992;2022-09-13T10:52:53;22.40;95.30
61201;DHT22;47065;52.898;6.992;2022-09-13T10:57:49;22.90;92.40
61201;DHT22;47065;52.898;6.992;2022-09-13T11:00:20;23.40;91.20
61201;DHT22;47065;52.898;6.992;2022-09-13T11:03:13;23.70;93.60
61201;DHT22;47065;52.898;6.992;2022-09-13T11:11:33;24.40;85.70
61201;DHT22;47065;52.898;6.992;2022-09-13T11:14:13;24.10;90.70
61201;DHT22;47065;52.898;6.992;2022-09-13T11:17:01;23.70;89.80
61201;DHT22;47065;52.898;6.992;2022-09-13T11:19:59;23.30;92.20
61201;DHT22;47065;52.898;6.992;2022-09-13T11:25:41;22.90;93.40
61201;DHT22;47065;52.898;6.992;2022-09-13T11:39:36;24.50;72.50
61201;DHT22;47065;52.898;6.992;2022-09-13T11:41:45;24.60;78.00
61201;DHT22;47065;52.898;6.992;2022-09-13T11:47:14;24.80;75.30
61201;DHT22;47065;52.898;6.992;2022-09-13T11:55:20;24.70;81.20
61201;DHT22;47065;52.898;6.992;2022-09-13T11:58:11;24.90;83.70
61201;DHT22;47065;52.898;6.992;2022-09-13T12:00:45;25.00;65.70
61201;DHT22;47065;52.898;6.992;2022-09-13T12:03:18;24.90;64.10
61201;DHT22;47065;52.898;6.992;2022-09-13T12:05:50;24.90;63.60
61201;DHT22;47065;52.898;6.992;2022-09-13T12:08:33;25.00;68.20
61201;DHT22;47065;52.898;6.992;2022-09-13T12:11:10;25.00;71.30
61201;DHT22;47065;52.898;6.992;2022-09-13T12:13:45;24.90;72.50
61201;DHT22;47065;52.898;6.992;2022-09-13T12:16:17;24.90;77.10
61201;DHT22;47065;52.898;6.992;2022-09-13T12:18:51;24.90;77.50
61201;DHT22;47065;52.898;6.992;2022-09-13T12:21:39;24.90;75.50
61201;DHT22;47065;52.898;6.992;2022-09-13T12:30:05;24.70;77.70
61201;DHT22;47065;52.898;6.992;2022-09-13T12:32:31;24.50;79.70
61201;DHT22;47065;52.898;6.992;2022-09-13T12:35:07;24.50;77.20
61201;DHT22;47065;52.898;6.992;2022-09-13T12:37:46;24.40;80.80
61201;DHT22;47065;52.898;6.992;2022-09-13T12:52:01;23.60;85.80
61201;DHT22;47065;52.898;6.992;2022-09-13T12:54:53;23.60;84.60
61201;DHT22;47065;52.898;6.992;2022-09-13T13:00:10;23.40;84.20
61201;DHT22;47065;52.898;6.992;2022-09-13T13:02:57;23.50;83.10
61201;DHT22;47065;52.898;6.992;2022-09-13T13:05:34;23.60;84.50
61201;DHT22;47065;52.898;6.992;2022-09-13T13:10:45;23.80;80.30
61201;DHT22;47065;52.898;6.992;2022-09-13T13:13:38;23.90;80.40
61201;DHT22;47065;52.898;6.992;2022-09-13T13:16:21;24.00;82.80
61201;DHT22;47065;52.898;6.992;2022-09-13T13:18:49;24.10;85.70
61201;DHT22;47065;52.898;6.992;2022-09-13T13:26:55;23.80;83.00
61201;DHT22;47065;52.898;6.992;2022-09-13T13:34:45;23.80;86.00
61201;DHT22;47065;52.898;6.992;2022-09-13T13:39:44;24.00;76.80
61201;DHT22;47065;52.898;6.992;2022-09-13T13:42:11;24.00;70.30
61201;DHT22;47065;52.898;6.992;2022-09-13T13:57:29;23.40;84.20
61201;DHT22;47065;52.898;6.992;2022-09-13T14:02:45;23.10;87.50
61201;DHT22;47065;52.898;6.992;2022-09-13T14:08:31;23.10;86.10
61201;DHT22;47065;52.898;6.992;2022-09-13T14:14:13;22.80;90.20
61201;DHT22;47065;52.898;6.992;2022-09-13T14:16:52;22.90;90.60
61201;DHT22;47065;52.898;6.992;2022-09-13T14:19:29;22.80;89.00
61201;DHT22;47065;52.898;6.992;2022-09-13T14:24:42;22.90;87.10
61201;DHT22;47065;52.898;6.992;2022-09-13T14:27:14;22.90;90.00
61201;DHT22;47065;52.898;6.992;2022-09-13T14:29:44;22.80;90.50
61201;DHT22;47065;52.898;6.992;2022-09-13T14:32:16;22.80;91.00
61201;DHT22;47065;52.898;6.992;2022-09-13T14:34:54;22.70;90.30
61201;DHT22;47065;52.898;6.992;2022-09-13T14:37:30;22.60;90.70
61201;DHT22;47065;52.898;6.992;2022-09-13T14:42:43;22.30;92.50
61201;DHT22;47065;52.898;6.992;2022-09-13T14:45:19;22.20;91.60
61201;DHT22;47065;52.898;6.992;2022-09-13T14:48:05;22.20;92.00
61201;DHT22;47065;52.898;6.992;2022-09-13T14:50:41;22.20;92.30
61201;DHT22;47065;52.898;6.992;2022-09-13T14:53:14;22.20;92.40
61201;DHT22;47065;52.898;6.992;2022-09-13T14:55:51;22.20;91.70
61201;DHT22;47065;52.898;6.992;2022-09-13T14:58:24;22.10;91.60
61201;DHT22;47065;52.898;6.992;2022-09-13T15:01:04;22.00;92.00
61201;DHT22;47065;52.898;6.992;2022-09-13T15:03:32;21.90;92.30
61201;DHT22;47065;52.898;6.992;2022-09-13T15:05:59;21.90;92.50
61201;DHT22;47065;52.898;6.992;2022-09-13T15:10:58;21.80;92.30
61201;DHT22;47065;52.898;6.992;2022-09-13T15:13:24;21.60;93.20
61201;DHT22;47065;52.898;6.992;2022-09-13T15:15:50;21.60;93.10
61201;DHT22;47065;52.898;6.992;2022-09-13T15:20:52;21.50;92.90
61201;DHT22;47065;52.898;6.992;2022-09-13T15:26:20;21.50;93.10
61201;DHT22;47065;52.898;6.992;2022-09-13T15:28:56;21.60;93.10
61201;DHT22;47065;52.898;6.992;2022-09-13T15:31:27;21.70;93.30
61201;DHT22;47065;52.898;6.992;2022-09-13T15:36:42;21.70;91.40
61201;DHT22;47065;52.898;6.992;2022-09-13T15:41:38;21.40;91.90
61201;DHT22;47065;52.898;6.992;2022-09-13T15:44:06;21.20;92.00
61201;DHT22;47065;52.898;6.992;2022-09-13T15:46:36;21.10;92.30
61201;DHT22;47065;52.898;6.992;2022-09-13T15:49:14;21.00;92.30
61201;DHT22;47065;52.898;6.992;2022-09-13T15:51:42;20.90;92.60
61201;DHT22;47065;52.898;6.992;2022-09-13T15:54:16;20.80;92.90
61201;DHT22;47065;52.898;6.992;2022-09-13T15:56:44;20.80;92.10
61201;DHT22;47065;52.898;6.992;2022-09-13T15:59:15;20.80;92.30
61201;DHT22;47065;52.898;6.992;2022-09-13T16:01:42;20.90;91.90
61201;DHT22;47065;52.898;6.992;2022-09-13T16:04:08;20.80;91.90
61201;DHT22;47065;52.898;6.992;2022-09-13T16:06:34;20.80;91.70
61201;DHT22;47065;52.898;6.992;2022-09-13T16:09:00;20.70;91.70
61201;DHT22;47065;52.898;6.992;2022-09-13T16:11:26;20.60;91.60
61201;DHT22;47065;52.898;6.992;2022-09-13T16:13:51;20.50;91.60
61201;DHT22;47065;52.898;6.992;2022-09-13T16:16:17;20.40;91.60
61201;DHT22;47065;52.898;6.992;2022-09-13T16:18:43;20.30;91.50
61201;DHT22;47065;52.898;6.992;2022-09-13T16:21:08;20.40;91.90
61201;DHT22;47065;52.898;6.992;2022-09-13T16:23:34;20.50;91.30
61201;DHT22;47065;52.898;6.992;2022-09-13T16:26:01;20.50;90.80
61201;DHT22;47065;52.898;6.992;2022-09-13T16:28:29;20.50;90.40
61201;DHT22;47065;52.898;6.992;2022-09-13T16:30:55;20.50;90.20
61201;DHT22;47065;52.898;6.992;2022-09-13T16:33:21;20.40;90.10
61201;DHT22;47065;52.898;6.992;2022-09-13T16:35:47;20.30;90.00
61201;DHT22;47065;52.898;6.992;2022-09-13T16:38:13;20.10;90.10
61201;DHT22;47065;52.898;6.992;2022-09-13T16:40:40;19.90;90.20
61201;DHT22;47065;52.898;6.992;2022-09-13T16:43:06;19.80;90.20
61201;DHT22;47065;52.898;6.992;2022-09-13T16:45:32;19.70;90.10
61201;DHT22;47065;52.898;6.992;2022-09-13T16:47:58;19.50;90.40
61201;DHT22;47065;52.898;6.992;2022-09-13T16:50:23;19.50;90.40
61201;DHT22;47065;52.898;6.992;2022-09-13T16:52:49;19.50;90.50
61201;DHT22;47065;52.898;6.992;2022-09-13T16:55:15;19.50;90.20
61201;DHT22;47065;52.898;6.992;2022-09-13T16:57:40;19.40;90.10
61201;DHT22;47065;52.898;6.992;2022-09-13T17:00:07;19.30;90.10
61201;DHT22;47065;52.898;6.992;2022-09-13T17:02:35;19.20;90.30
61201;DHT22;47065;52.898;6.992;2022-09-13T17:05:01;19.10;90.50
61201;DHT22;47065;52.898;6.992;2022-09-13T17:07:26;19.00;90.50
61201;DHT22;47065;52.898;6.992;2022-09-13T17:09:52;18.90;90.40
61201;DHT22;47065;52.898;6.992;2022-09-13T17:12:18;18.70;90.60
61201;DHT22;47065;52.898;6.992;2022-09-13T17:14:43;18.70;90.60
61201;DHT22;47065;52.898;6.992;2022-09-13T17:17:15;18.60;92.10
61201;DHT22;47065;52.898;6.992;2022-09-13T17:19:41;18.80;91.40
61201;DHT22;47065;52.898;6.992;2022-09-13T17:22:06;18.90;90.30
61201;DHT22;47065;52.898;6.992;2022-09-13T17:24:34;18.80;89.20
61201;DHT22;47065;52.898;6.992;2022-09-13T17:27:02;18.70;88.60
61201;DHT22;47065;52.898;6.992;2022-09-13T17:29:29;18.60;88.30
61201;DHT22;47065;52.898;6.992;2022-09-13T17:32:00;18.50;88.10
61201;DHT22;47065;52.898;6.992;2022-09-13T17:34:26;18.30;88.00
61201;DHT22;47065;52.898;6.992;2022-09-13T17:36:52;18.20;88.30
61201;DHT22;47065;52.898;6.992;2022-09-13T17:39:19;18.00;88.80
61201;DHT22;47065;52.898;6.992;2022-09-13T17:41:46;17.90;89.20
61201;DHT22;47065;52.898;6.992;2022-09-13T17:44:13;17.80;89.80
61201;DHT22;47065;52.898;6.992;2022-09-13T17:46:39;17.70;90.10
61201;DHT22;47065;52.898;6.992;2022-09-13T17:49:05;17.50;90.50
61201;DHT22;47065;52.898;6.992;2022-09-13T17:51:31;17.40;90.80
61201;DHT22;47065;52.898;6.992;2022-09-13T17:53:59;17.20;91.10
61201;DHT22;47065;52.898;6.992;2022-09-13T17:56:33;17.10;91.40
61201;DHT22;47065;52.898;6.992;2022-09-13T17:59:10;17.00;91.80
61201;DHT22;47065;52.898;6.992;2022-09-13T18:01:39;16.90;91.90
61201;DHT22;47065;52.898;6.992;2022-09-13T18:04:05;16.80;92.30
61201;DHT22;47065;52.898;6.992;2022-09-13T18:06:32;16.70;92.60
61201;DHT22;47065;52.898;6.992;2022-09-13T18:08:58;16.60;93.00
61201;DHT22;47065;52.898;6.992;2022-09-13T18:11:24;16.50;93.40
61201;DHT22;47065;52.898;6.992;2022-09-13T18:13:50;16.40;93.80
61201;DHT22;47065;52.898;6.992;2022-09-13T18:16:18;16.30;94.40
61201;DHT22;47065;52.898;6.992;2022-09-13T18:18:45;16.20;94.80
61201;DHT22;47065;52.898;6.992;2022-09-13T18:21:12;16.10;95.00
61201;DHT22;47065;52.898;6.992;2022-09-13T18:23:44;16.10;95.20
61201;DHT22;47065;52.898;6.992;2022-09-13T18:26:11;16.00;95.40
61201;DHT22;47065;52.898;6.992;2022-09-13T18:28:37;15.90;95.60
61201;DHT22;47065;52.898;6.992;2022-09-13T18:31:05;15.90;95.80
61201;DHT22;47065;52.898;6.992;2022-09-13T18:33:32;15.80;96.60
61201;DHT22;47065;52.898;6.992;2022-09-13T18:38:25;15.70;97.80
61201;DHT22;47065;52.898;6.992;2022-09-13T18:41:06;15.60;98.00
61201;DHT22;47065;52.898;6.992;2022-09-13T18:43:38;15.50;98.30
61201;DHT22;47065;52.898;6.992;2022-09-13T18:46:06;15.40;98.70
61201;DHT22;47065;52.898;6.992;2022-09-13T18:48:38;15.40;98.90
61201;DHT22;47065;52.898;6.992;2022-09-13T18:51:04;15.30;99.10